CheckWX is a tool to help pilots better visualize weather data.  It is not intended as a substitute for an official pre-flight weather briefing.

21:39:50 UTC

KQBL METAR
Hurlbert
Hurlbert, Florida, USA
Current

39 mins ago

KQBL 082101Z AUTO 00000KT 10SM SCT005 OVC008 26/24 A2989 RMK AO2 LTG DSNT E CIG 005V008 SLP127 WND DATA ESTMD
Observed
Apr-8 @ 21:01 UTC
Visibility
Flight Rules
IFR
Cloud Levels
  • Scattered at 500' AGL
  • Overcast at 800' AGL
Temperature
26°C / 79°F
Dewpoint
24°C / 75°F
Humidity
89%
Altimeter
29.89" Hg
Pressure
1012.22 hPa
Previous

44 mins ago

KQBL 082056Z AUTO 00000KT 10SM BKN005 OVC009 25/24 A2989 RMK AO2 LTG DSNT E CIG 004V006 SLP127 WND DATA ESTMD T02540235 57019
Observed
Apr-8 @ 20:56 UTC
Visibility
Flight Rules
IFR
Cloud Levels
  • Broken at 500' AGL
  • Overcast at 900' AGL
Temperature
25°C / 77°F
Dewpoint
24°C / 75°F
Humidity
94%
Altimeter
29.89" Hg
Pressure
1012.22 hPa
Previous

2 hours ago

KQBL 081956Z AUTO 00000KT 10SM BKN004 26/24 A2991 RMK AO2 CIG 004V006 BKN V SCT SLP134 WND DATA ESTMD T02560235
Observed
Apr-8 @ 19:56 UTC
Visibility
Flight Rules
LIFR
Cloud Levels
  • Broken at 400' AGL
Temperature
26°C / 79°F
Dewpoint
24°C / 75°F
Humidity
89%
Altimeter
29.91" Hg
Pressure
1012.92 hPa